Time;durP1;ratioP1;P1;durP2;ratioP2;P2;SDS_P1;SDS_P2;PMS_P1;PMS_P2;Temp;Humidity;BMP_temperature;BMP_pressure;BME280_temperature;BME280_humidity;BME280_pressure;Samples;Min_cycle;Max_cycle;Signal;HPM_P1;HPM_P2
2022/06/02 00:02:19;;;;;;;4.43;3.03;;;13.40;99.90;;;;;;5058773;28;20170;-85
2022/06/02 00:04:47;;;;;;;5.80;3.00;;;13.40;99.90;;;;;;5058558;28;20169;-85
2022/06/02 00:07:30;;;;;;;4.70;3.00;;;13.40;99.90;;;;;;5058927;28;20233;-85
2022/06/02 00:10:20;;;;;;;3.33;2.90;;;13.40;99.90;;;;;;5058970;28;20174;-85
2022/06/02 00:12:58;;;;;;;3.90;3.00;;;13.50;99.90;;;;;;5060093;28;20215;-84
2022/06/02 00:15:42;;;;;;;4.00;3.10;;;13.50;99.90;;;;;;5057167;28;20239;-85
2022/06/02 00:18:45;;;;;;;3.77;3.33;;;13.50;99.90;;;;;;5058019;28;20728;-85
2022/06/02 00:21:42;;;;;;;4.63;2.60;;;13.50;99.90;;;;;;5057269;28;20227;-85
2022/06/02 00:24:47;;;;;;;4.80;2.57;;;13.40;99.90;;;;;;5057876;28;20227;-85
2022/06/02 00:27:38;;;;;;;3.37;2.50;;;13.40;99.90;;;;;;5056169;28;20319;-85
2022/06/02 00:30:24;;;;;;;3.20;2.63;;;13.40;99.90;;;;;;5055510;28;20177;-85
2022/06/02 00:33:12;;;;;;;5.40;2.93;;;13.40;99.90;;;;;;5055413;28;20185;-85
2022/06/02 00:35:55;;;;;;;2.90;2.60;;;13.40;99.90;;;;;;5054257;28;20611;-85
2022/06/02 00:38:23;;;;;;;2.60;2.40;;;13.30;99.90;;;;;;5054954;28;20205;-85
2022/06/02 00:40:50;;;;;;;6.63;2.50;;;13.30;99.90;;;;;;5053260;28;20178;-85
2022/06/02 00:43:25;;;;;;;5.90;2.40;;;13.30;99.90;;;;;;5055323;28;20177;-85
2022/06/02 00:46:14;;;;;;;2.50;2.20;;;13.30;99.90;;;;;;5059286;28;20178;-85
2022/06/02 00:49:08;;;;;;;2.87;2.23;;;13.30;99.90;;;;;;5059149;28;20189;-85
2022/06/02 00:51:39;;;;;;;3.07;2.10;;;13.30;99.90;;;;;;5059017;28;20628;-85
2022/06/02 00:57:50;;;;;;;3.03;2.00;;;13.30;99.90;;;;;;5061114;28;20201;-85
2022/06/02 01:00:36;;;;;;;2.73;2.30;;;13.30;99.90;;;;;;5057726;28;20189;-85
2022/06/02 01:03:14;;;;;;;3.03;2.13;;;13.30;99.90;;;;;;5060878;28;20272;-85
2022/06/02 01:06:10;;;;;;;3.57;2.30;;;13.30;99.90;;;;;;5059834;28;20260;-85
2022/06/02 01:09:13;;;;;;;3.13;2.30;;;13.20;99.90;;;;;;5059348;28;20173;-85
2022/06/02 01:12:07;;;;;;;3.07;2.40;;;13.20;99.90;;;;;;5059000;28;20196;-85
2022/06/02 01:14:47;;;;;;;3.30;2.30;;;13.20;99.90;;;;;;5060435;28;20177;-85
2022/06/02 01:17:25;;;;;;;3.70;2.30;;;13.10;99.90;;;;;;5059164;28;20193;-85
2022/06/02 01:20:05;;;;;;;3.50;2.53;;;13.10;99.90;;;;;;5060329;28;20201;-85
2022/06/02 01:22:49;;;;;;;5.43;2.47;;;13.10;99.90;;;;;;5060423;28;20176;-85
2022/06/02 01:25:23;;;;;;;3.03;2.43;;;13.00;99.90;;;;;;5059255;28;20225;-85
2022/06/02 01:28:16;;;;;;;3.60;2.60;;;13.00;99.90;;;;;;5060067;28;20185;-85
2022/06/02 01:30:50;;;;;;;3.03;2.60;;;13.10;99.90;;;;;;5059867;28;20626;-86
2022/06/02 01:33:40;;;;;;;3.10;2.80;;;13.10;99.90;;;;;;5058916;28;20170;-85
2022/06/02 01:36:12;;;;;;;5.70;2.70;;;13.10;99.90;;;;;;5060788;28;20204;-85
2022/06/02 01:38:52;;;;;;;5.77;3.00;;;13.00;99.90;;;;;;5059374;28;20177;-85
2022/06/02 01:42:00;;;;;;;2.77;2.47;;;13.00;99.90;;;;;;5062800;28;20200;-84
2022/06/02 01:45:09;;;;;;;2.90;2.30;;;13.00;99.90;;;;;;5064975;28;20182;-85
2022/06/02 01:47:40;;;;;;;3.37;2.87;;;13.00;99.90;;;;;;5057388;28;20201;-85
2022/06/02 01:50:27;;;;;;;2.93;2.50;;;13.00;99.90;;;;;;5057055;28;20173;-85
2022/06/02 01:52:55;;;;;;;2.17;1.93;;;13.00;99.90;;;;;;5058923;28;20174;-85
2022/06/02 01:55:54;;;;;;;2.63;2.00;;;13.00;99.90;;;;;;5059872;28;20197;-85
2022/06/02 01:58:58;;;;;;;2.27;2.07;;;12.90;99.90;;;;;;5057599;28;20217;-85
2022/06/02 02:01:26;;;;;;;4.07;2.20;;;13.00;99.90;;;;;;5057545;28;20647;-85
2022/06/02 02:04:22;;;;;;;2.17;1.97;;;12.90;99.90;;;;;;5057698;28;20165;-85
2022/06/02 02:06:50;;;;;;;2.43;1.77;;;13.00;99.90;;;;;;5058793;28;20202;-85
2022/06/02 02:09:42;;;;;;;2.20;2.00;;;12.90;99.90;;;;;;5058702;28;20177;-85
2022/06/02 02:12:32;;;;;;;1.90;1.80;;;12.90;99.90;;;;;;5059103;28;20538;-85
2022/06/02 02:15:31;;;;;;;3.57;1.83;;;13.00;99.90;;;;;;5061758;28;20193;-85
2022/06/02 02:18:13;;;;;;;2.10;1.77;;;12.90;99.90;;;;;;5061289;28;20200;-85
2022/06/02 02:20:57;;;;;;;1.90;1.60;;;12.90;99.90;;;;;;5062712;28;20244;-84
2022/06/02 02:23:31;;;;;;;3.87;2.23;;;12.90;99.90;;;;;;5063366;28;20161;-84
2022/06/02 02:26:26;;;;;;;3.83;2.00;;;12.90;99.90;;;;;;5060613;28;20682;-85
2022/06/02 02:28:56;;;;;;;1.97;1.77;;;12.90;99.90;;;;;;5060683;28;20166;-85
2022/06/02 02:31:40;;;;;;;4.43;2.30;;;12.90;99.90;;;;;;5060141;28;20231;-85
2022/06/02 02:35:03;;;;;;;3.57;2.17;;;13.00;99.90;;;;;;5060776;28;20264;-85
2022/06/02 02:37:54;;;;;;;2.30;1.90;;;13.00;99.90;;;;;;5019848;28;20210;-85
2022/06/02 02:40:28;;;;;;;3.37;2.40;;;13.00;99.90;;;;;;5060868;28;20169;-85
2022/06/02 02:43:06;;;;;;;3.30;2.40;;;13.00;99.90;;;;;;5061502;28;20631;-86
2022/06/02 02:45:55;;;;;;;3.50;2.20;;;12.90;99.90;;;;;;5062882;28;20158;-86
2022/06/02 02:48:30;;;;;;;2.83;2.23;;;13.00;99.90;;;;;;5062143;28;20527;-85
2022/06/02 02:51:42;;;;;;;6.23;2.83;;;13.00;99.90;;;;;;5060795;28;20177;-85
2022/06/02 02:54:27;;;;;;;7.00;3.23;;;13.00;99.90;;;;;;5055288;28;20662;-85
2022/06/02 02:57:08;;;;;;;15.73;3.90;;;13.00;99.90;;;;;;5060574;28;20213;-85
2022/06/02 02:59:53;;;;;;;12.43;2.93;;;13.00;99.90;;;;;;5060629;28;20599;-85
2022/06/02 03:02:40;;;;;;;17.60;3.83;;;13.00;99.90;;;;;;5062341;28;20158;-86
2022/06/02 03:05:09;;;;;;;9.23;3.47;;;12.90;99.90;;;;;;5060068;28;20200;-85
2022/06/02 03:07:35;;;;;;;5.37;2.90;;;12.90;99.90;;;;;;5061068;28;20683;-85
2022/06/02 03:10:00;;;;;;;6.23;3.40;;;12.90;99.90;;;;;;5059963;28;20213;-85
2022/06/02 03:12:26;;;;;;;7.70;3.43;;;;;;;;;;5059335;28;20174;-85
2022/06/02 03:15:34;;;;;;;3.93;2.83;;;12.80;99.90;;;;;;5059518;28;20197;-85
2022/06/02 03:18:24;;;;;;;2.40;2.20;;;12.70;99.90;;;;;;5060800;28;20186;-85
2022/06/02 03:21:05;;;;;;;2.70;2.47;;;12.70;99.90;;;;;;5058535;28;20212;-85
2022/06/02 03:23:46;;;;;;;3.10;2.63;;;12.70;99.90;;;;;;5057818;28;20173;-85
2022/06/02 03:26:23;;;;;;;4.07;3.10;;;12.60;99.90;;;;;;5058174;28;20170;-85
2022/06/02 03:29:33;;;;;;;4.67;3.13;;;12.60;99.90;;;;;;5059073;28;20181;-85
2022/06/02 03:32:02;;;;;;;4.00;2.53;;;12.60;99.90;;;;;;5017605;28;20211;-85
2022/06/02 03:34:39;;;;;;;3.50;3.03;;;12.60;99.90;;;;;;5052524;28;20213;-85
2022/06/02 03:37:44;;;;;;;3.20;2.90;;;12.60;99.90;;;;;;5057375;28;20232;-85
2022/06/02 03:40:31;;;;;;;2.97;2.70;;;12.60;99.90;;;;;;5056747;28;20227;-85
2022/06/02 03:43:15;;;;;;;3.97;2.70;;;12.60;99.90;;;;;;5055775;28;20537;-85
2022/06/02 03:46:00;;;;;;;6.40;3.00;;;12.60;99.90;;;;;;5055662;28;20219;-85
2022/06/02 03:49:08;;;;;;;4.77;2.77;;;12.70;99.90;;;;;;5054701;28;20205;-85
2022/06/02 03:51:55;;;;;;;4.47;2.80;;;12.70;99.90;;;;;;5056884;28;20260;-85
2022/06/02 03:54:24;;;;;;;4.80;2.77;;;12.70;99.90;;;;;;5060748;28;20192;-85
2022/06/02 03:56:58;;;;;;;3.40;3.07;;;12.70;99.90;;;;;;5060019;28;20205;-85
2022/06/02 03:59:24;;;;;;;3.37;3.07;;;;;;;;;;5059998;28;20189;-85
2022/06/02 04:02:10;;;;;;;3.37;2.80;;;12.60;99.90;;;;;;5062468;28;20177;-85
2022/06/02 04:04:55;;;;;;;3.30;3.00;;;12.50;99.90;;;;;;5060241;28;20174;-85
2022/06/02 04:07:34;;;;;;;3.67;3.00;;;12.80;99.90;;;;;;5060128;28;20232;-85
2022/06/02 04:10:16;;;;;;;5.63;3.53;;;13.00;99.90;;;;;;5059930;28;20238;-85
2022/06/02 04:15:56;;;;;;;3.60;3.30;;;12.80;99.90;;;;;;5061338;28;20212;-85
2022/06/02 04:18:44;;;;;;;5.53;3.83;;;12.70;99.90;;;;;;5059882;28;20232;-85
2022/06/02 04:21:22;;;;;;;6.27;3.30;;;;;;;;;;5059735;28;20181;-85
2022/06/02 04:24:03;;;;;;;4.47;3.00;;;12.90;99.90;;;;;;5061536;28;20177;-85
2022/06/02 04:26:47;;;;;;;3.90;2.80;;;12.80;99.90;;;;;;5062173;28;20166;-86
2022/06/02 04:29:48;;;;;;;3.60;3.00;;;13.10;99.90;;;;;;5060645;28;20185;-87
2022/06/02 04:32:58;;;;;;;3.50;3.20;;;12.90;99.90;;;;;;5060903;28;20658;-86
2022/06/02 04:35:48;;;;;;;4.30;2.67;;;12.70;99.90;;;;;;5019255;28;20198;-85
2022/06/02 04:38:24;;;;;;;5.00;3.17;;;13.20;99.90;;;;;;5060547;28;20276;-86
2022/06/02 04:41:00;;;;;;;3.70;2.97;;;12.90;99.90;;;;;;5060790;28;20173;-85
2022/06/02 04:43:33;;;;;;;3.13;2.80;;;12.90;99.90;;;;;;5059987;28;20168;-86
2022/06/02 04:46:34;;;;;;;5.53;2.70;;;13.00;99.90;;;;;;5060424;28;20209;-85
2022/06/02 04:49:23;;;;;;;3.93;3.43;;;13.00;99.90;;;;;;5025526;28;20244;-85
2022/06/02 04:51:59;;;;;;;5.47;3.60;;;13.10;99.90;;;;;;5059861;28;20223;-85
2022/06/02 04:54:25;;;;;;;4.27;3.73;;;;;;;;;;5060672;28;20180;-86
2022/06/02 04:57:28;;;;;;;5.00;2.97;;;13.10;99.90;;;;;;5061294;28;20554;-86
2022/06/02 05:00:18;;;;;;;4.27;3.40;;;13.20;99.90;;;;;;5059943;28;20197;-86
2022/06/02 05:02:56;;;;;;;4.03;3.63;;;13.20;99.90;;;;;;5061593;28;20163;-86
2022/06/02 05:05:32;;;;;;;4.77;4.07;;;13.20;99.90;;;;;;5061442;28;20153;-86
2022/06/02 05:08:25;;;;;;;4.33;3.90;;;13.40;99.90;;;;;;5058886;28;20224;-87
2022/06/02 05:11:09;;;;;;;6.30;4.00;;;13.60;99.90;;;;;;5056968;28;20219;-86
2022/06/02 05:13:35;;;;;;;4.50;3.93;;;13.80;99.90;;;;;;5054591;28;20648;-86
2022/06/02 05:16:24;;;;;;;4.67;3.97;;;13.60;99.90;;;;;;5056978;28;20203;-86
2022/06/02 05:19:08;;;;;;;4.30;3.80;;;13.60;99.90;;;;;;5056218;28;20243;-87
2022/06/02 05:21:49;;;;;;;4.40;3.80;;;13.70;99.90;;;;;;5056126;28;20173;-87
2022/06/02 05:24:50;;;;;;;4.73;3.50;;;13.50;99.90;;;;;;5055304;28;20173;-86
2022/06/02 05:27:53;;;;;;;4.50;4.10;;;13.80;99.90;;;;;;5032932;28;20206;-86
2022/06/02 05:30:34;;;;;;;4.07;3.50;;;14.00;99.90;;;;;;5054473;28;20544;-86
2022/06/02 05:33:41;;;;;;;5.13;3.97;;;13.80;99.90;;;;;;5056007;28;20627;-87
2022/06/02 05:36:19;;;;;;;5.20;4.70;;;13.80;99.90;;;;;;5054949;28;20285;-87
2022/06/02 05:39:00;;;;;;;5.57;4.20;;;13.90;99.90;;;;;;5054439;28;20239;-87
2022/06/02 05:41:28;;;;;;;7.63;4.47;;;13.80;99.90;;;;;;5054460;28;20166;-87
2022/06/02 05:44:09;;;;;;;5.60;4.10;;;13.70;99.90;;;;;;5054303;28;20177;-86
2022/06/02 05:47:18;;;;;;;4.93;4.33;;;13.90;99.90;;;;;;5056546;28;20197;-87
2022/06/02 05:50:02;;;;;;;6.43;4.37;;;13.90;99.90;;;;;;5058610;28;20166;-87
2022/06/02 05:52:39;;;;;;;3.87;3.37;;;14.00;99.90;;;;;;5058953;28;20174;-87
2022/06/02 05:55:27;;;;;;;4.70;3.90;;;13.90;99.90;;;;;;5058722;28;20422;-87
2022/06/02 05:58:11;;;;;;;4.77;3.80;;;14.00;99.90;;;;;;5058779;28;20189;-86
2022/06/02 06:01:19;;;;;;;5.97;4.00;;;14.10;99.90;;;;;;5059351;28;20189;-87
2022/06/02 06:04:18;;;;;;;5.17;4.37;;;14.10;99.90;;;;;;5040281;28;20665;-86
2022/06/02 06:06:54;;;;;;;8.97;4.60;;;14.20;99.90;;;;;;5058969;28;20193;-85
2022/06/02 06:09:43;;;;;;;5.70;4.57;;;14.50;99.90;;;;;;5060917;28;20542;-85
2022/06/02 06:12:33;;;;;;;5.70;4.83;;;14.30;99.90;;;;;;5055389;28;20217;-85
2022/06/02 06:15:19;;;;;;;6.60;4.87;;;14.40;99.90;;;;;;5059242;28;20228;-85
2022/06/02 06:17:56;;;;;;;6.43;4.93;;;14.60;99.90;;;;;;5060071;28;20204;-85
2022/06/02 06:20:34;;;;;;;7.40;4.77;;;14.30;99.90;;;;;;5059877;28;20166;-84
2022/06/02 06:23:32;;;;;;;5.37;4.87;;;14.50;99.90;;;;;;5059732;28;20189;-85
2022/06/02 06:26:04;;;;;;;7.00;4.23;;;14.60;99.90;;;;;;5058308;28;20579;-85
2022/06/02 06:28:35;;;;;;;6.47;4.90;;;14.70;99.90;;;;;;5059254;28;20682;-85
2022/06/02 06:31:10;;;;;;;6.73;4.57;;;14.70;99.90;;;;;;5059073;28;20520;-86
2022/06/02 06:33:36;;;;;;;5.13;4.30;;;;;;;;;;5059410;28;20177;-86
2022/06/02 06:36:09;;;;;;;6.90;4.17;;;14.80;99.90;;;;;;5058072;28;20212;-86
2022/06/02 06:39:02;;;;;;;5.93;4.47;;;14.80;99.90;;;;;;5057573;28;20206;-86
2022/06/02 06:41:52;;;;;;;4.50;4.10;;;14.90;99.90;;;;;;5058207;28;20264;-86
2022/06/02 06:44:27;;;;;;;6.53;4.30;;;15.20;99.90;;;;;;5057690;28;20170;-86
2022/06/02 06:47:06;;;;;;;6.13;4.20;;;14.70;99.90;;;;;;5057321;28;20205;-85
2022/06/02 06:49:50;;;;;;;4.53;4.00;;;14.80;99.90;;;;;;5057202;28;20175;-86
2022/06/02 06:52:35;;;;;;;5.03;4.20;;;15.00;99.90;;;;;;5057059;28;20239;-85
2022/06/02 06:55:20;;;;;;;6.57;4.10;;;15.00;99.90;;;;;;5056297;28;20232;-85
2022/06/02 06:57:56;;;;;;;5.00;3.80;;;15.00;99.90;;;;;;5054709;28;20206;-86
2022/06/02 07:00:47;;;;;;;4.93;3.90;;;15.10;99.90;;;;;;5057275;28;20199;-86
2022/06/02 07:03:16;;;;;;;7.63;3.73;;;;;;;;;;5059587;28;20549;-85
2022/06/02 07:05:50;;;;;;;4.33;3.93;;;15.20;99.90;;;;;;5061149;28;20647;-85
2022/06/02 07:08:36;;;;;;;5.03;3.70;;;15.30;99.90;;;;;;5060158;28;20586;-85
2022/06/02 07:12:50;;;;;;;4.03;3.57;;;15.40;99.90;;;;;;5060242;28;20253;-86
2022/06/02 07:14:33;;;;;;;4.10;3.60;;;15.40;99.90;;;;;;5061538;28;20186;-85
2022/06/02 07:17:04;;;;;;;6.50;4.00;;;15.80;99.90;;;;;;5059365;28;20222;-85
2022/06/02 07:19:45;;;;;;;4.27;3.50;;;16.00;99.90;;;;;;5059755;28;20175;-85
2022/06/02 07:22:36;;;;;;;8.00;4.07;;;15.90;99.90;;;;;;5061958;28;20180;-85
2022/06/02 07:25:07;;;;;;;5.53;4.00;;;16.00;99.90;;;;;;5060259;28;20181;-85
2022/06/02 07:27:52;;;;;;;5.17;4.17;;;16.20;99.90;;;;;;5061105;28;20276;-85
2022/06/02 07:30:43;;;;;;;5.07;4.57;;;16.10;99.90;;;;;;5061454;28;20173;-85
2022/06/02 07:33:43;;;;;;;5.17;3.73;;;16.10;99.90;;;;;;5061560;28;20736;-85
2022/06/02 07:36:58;;;;;;;5.30;3.40;;;16.30;99.90;;;;;;5059590;28;20208;-85
2022/06/02 07:39:26;;;;;;;7.57;4.10;;;16.30;99.90;;;;;;5044182;28;20189;-85
2022/06/02 07:42:23;;;;;;;7.37;3.90;;;16.40;99.90;;;;;;5059638;28;20216;-84
2022/06/02 07:45:07;;;;;;;4.30;3.87;;;16.50;99.90;;;;;;5058653;28;20182;-85
2022/06/02 07:47:36;;;;;;;4.83;3.93;;;16.70;99.90;;;;;;5058215;28;20201;-84
2022/06/02 07:50:33;;;;;;;8.47;4.30;;;16.90;99.90;;;;;;5057797;28;20235;-85
2022/06/02 07:53:27;;;;;;;5.10;4.23;;;17.20;99.90;;;;;;5050888;28;20193;-85
2022/06/02 07:56:17;;;;;;;6.60;4.37;;;17.40;99.90;;;;;;5059296;28;20243;-85
2022/06/02 07:58:55;;;;;;;5.27;3.93;;;17.50;99.90;;;;;;5058532;28;20193;-84
2022/06/02 08:01:21;;;;;;;5.70;4.17;;;17.70;99.90;;;;;;5057577;28;20197;-85
2022/06/02 08:04:12;;;;;;;5.90;4.10;;;17.70;99.90;;;;;;5058377;28;20629;-84
2022/06/02 08:07:29;;;;;;;4.23;3.57;;;18.00;99.90;;;;;;5058738;28;20259;-84
2022/06/02 08:10:07;;;;;;;4.23;3.80;;;18.00;99.90;;;;;;5015427;28;20197;-84
2022/06/02 08:12:35;;;;;;;7.13;3.83;;;18.10;99.90;;;;;;5016593;28;20174;-84
2022/06/02 08:15:06;;;;;;;4.73;4.03;;;18.10;99.90;;;;;;5038994;28;20271;-84
2022/06/02 08:17:40;;;;;;;4.10;3.60;;;18.10;99.90;;;;;;5057803;28;20197;-84
2022/06/02 08:20:25;;;;;;;5.17;4.07;;;18.10;99.90;;;;;;5056370;28;20174;-84
2022/06/02 08:23:02;;;;;;;4.87;4.20;;;18.20;99.90;;;;;;5056663;28;20293;-84
2022/06/02 08:25:45;;;;;;;4.33;3.70;;;18.40;99.90;;;;;;5056300;28;20214;-84
2022/06/02 08:28:42;;;;;;;3.93;3.53;;;18.50;99.90;;;;;;5057006;28;20193;-84
2022/06/02 08:31:37;;;;;;;5.13;4.07;;;18.60;99.90;;;;;;5040313;28;20213;-84
2022/06/02 08:34:17;;;;;;;4.67;4.27;;;18.70;99.90;;;;;;5057005;28;20185;-84
2022/06/02 08:37:11;;;;;;;4.60;3.70;;;19.00;99.90;;;;;;5057847;28;20209;-84
2022/06/02 08:40:05;;;;;;;5.63;3.90;;;19.10;99.90;;;;;;5057762;28;20556;-85
2022/06/02 08:43:08;;;;;;;6.27;3.77;;;19.30;99.90;;;;;;5058196;28;20173;-85
2022/06/02 08:45:49;;;;;;;5.97;4.23;;;19.40;99.90;;;;;;5056813;28;20268;-85
2022/06/02 08:48:37;;;;;;;5.33;4.17;;;19.70;99.90;;;;;;5056859;28;20635;-83
2022/06/02 08:51:21;;;;;;;4.73;4.23;;;19.80;99.90;;;;;;5057698;28;20655;-84
2022/06/02 08:54:05;;;;;;;6.17;4.13;;;19.90;99.90;;;;;;5057340;28;20173;-83
2022/06/02 08:57:08;;;;;;;6.00;3.73;;;20.30;99.90;;;;;;5057034;28;20209;-82
2022/06/02 09:00:03;;;;;;;4.13;3.73;;;20.30;99.90;;;;;;5056793;28;20194;-83
2022/06/02 09:02:44;;;;;;;5.47;4.00;;;20.40;99.90;;;;;;5055507;28;20182;-83
2022/06/02 09:05:35;;;;;;;3.80;3.50;;;20.40;99.90;;;;;;5055970;28;20188;-83
2022/06/02 09:08:28;;;;;;;5.13;3.83;;;20.40;99.90;;;;;;5055596;28;20202;-83
2022/06/02 09:11:22;;;;;;;5.20;3.60;;;20.40;99.90;;;;;;5055638;28;20261;-83
2022/06/02 09:14:30;;;;;;;4.70;3.07;;;20.40;99.90;;;;;;5055823;28;20177;-82
2022/06/02 09:17:07;;;;;;;4.53;3.47;;;20.60;99.90;;;;;;5055066;28;20217;-83
2022/06/02 09:20:14;;;;;;;4.10;3.70;;;20.70;99.90;;;;;;5055200;28;20214;-82
2022/06/02 09:23:05;;;;;;;4.80;3.63;;;21.00;99.90;;;;;;5034418;28;20189;-83
2022/06/02 09:25:52;;;;;;;3.93;3.30;;;21.10;99.90;;;;;;5054970;28;20207;-83
2022/06/02 09:28:29;;;;;;;3.70;3.40;;;21.30;99.90;;;;;;5056764;28;20286;-82
2022/06/02 09:31:17;;;;;;;4.53;3.37;;;21.50;99.90;;;;;;5055159;28;20180;-83
2022/06/02 09:33:54;;;;;;;4.67;2.70;;;21.60;99.90;;;;;;5054973;28;20520;-82
2022/06/02 09:36:32;;;;;;;3.87;3.27;;;21.70;99.90;;;;;;5054776;28;20209;-82
2022/06/02 09:39:16;;;;;;;6.17;3.07;;;21.80;99.90;;;;;;5054631;28;20171;-82
2022/06/02 09:41:58;;;;;;;3.67;2.97;;;22.00;99.90;;;;;;5056214;28;20212;-82
2022/06/02 09:44:39;;;;;;;2.83;2.63;;;22.40;99.90;;;;;;5056276;28;20529;-82
2022/06/02 09:47:42;;;;;;;3.53;2.83;;;22.20;99.90;;;;;;5055746;28;20193;-82
2022/06/02 09:50:33;;;;;;;3.33;2.70;;;22.00;99.90;;;;;;5056189;28;20589;-82
2022/06/02 09:53:23;;;;;;;4.83;3.53;;;21.50;99.90;;;;;;5055486;28;20168;-82
2022/06/02 09:56:16;;;;;;;4.83;3.23;;;21.10;99.90;;;;;;5054751;28;20191;-82
2022/06/02 09:59:40;;;;;;;3.40;3.10;;;20.80;99.90;;;;;;5054354;28;20184;-82
2022/06/02 10:02:11;;;;;;;4.27;3.70;;;20.90;99.90;;;;;;5012417;28;20667;-82
2022/06/02 10:05:13;;;;;;;5.47;3.00;;;21.50;99.90;;;;;;5012174;28;20667;-82
2022/06/02 10:07:45;;;;;;;4.43;3.40;;;21.90;99.90;;;;;;5045610;28;20315;-82
2022/06/02 10:10:20;;;;;;;4.00;3.23;;;22.50;99.90;;;;;;5058864;28;20170;-82
2022/06/02 10:13:16;;;;;;;5.57;3.47;;;23.10;99.90;;;;;;5058989;28;20275;-83
2022/06/02 10:16:12;;;;;;;6.90;2.70;;;23.40;99.90;;;;;;5057878;28;20571;-83
2022/06/02 10:18:43;;;;;;;6.67;3.47;;;23.20;99.90;;;;;;5059740;28;20177;-83
2022/06/02 10:21:20;;;;;;;2.80;2.50;;;23.00;99.90;;;;;;5064433;28;20202;-82
2022/06/02 10:24:00;;;;;;;4.00;2.80;;;22.80;99.90;;;;;;5069832;28;20174;-82
2022/06/02 10:26:57;;;;;;;3.87;3.47;;;22.40;99.90;;;;;;5069263;28;20222;-83
2022/06/02 10:29:41;;;;;;;3.20;2.83;;;22.30;99.90;;;;;;5057526;28;20187;-83
2022/06/02 10:32:31;;;;;;;3.53;3.17;;;22.00;99.90;;;;;;5058364;28;20176;-83
2022/06/02 10:35:05;;;;;;;4.53;2.90;;;21.80;99.90;;;;;;5060451;28;20263;-83
2022/06/02 10:38:09;;;;;;;3.10;2.70;;;22.00;99.90;;;;;;5061293;28;20191;-83
2022/06/02 10:40:50;;;;;;;5.40;2.97;;;22.30;99.90;;;;;;5060425;28;20177;-82
2022/06/02 10:43:41;;;;;;;2.90;2.70;;;22.50;99.90;;;;;;5063009;28;20158;-83
2022/06/02 10:46:25;;;;;;;3.87;2.70;;;23.70;99.90;;;;;;5062597;28;20200;-83
2022/06/02 10:48:51;;;;;;;3.17;2.90;;;;;;;;;;5061573;28;20534;-83
2022/06/02 10:51:46;;;;;;;6.03;2.80;;;24.00;99.90;;;;;;5060359;28;20178;-83
2022/06/02 10:54:21;;;;;;;4.53;2.20;;;24.00;99.90;;;;;;5061709;28;20167;-83
2022/06/02 10:57:23;;;;;;;2.67;2.37;;;24.90;99.90;;;;;;5061472;28;20238;-84
2022/06/02 11:00:26;;;;;;;3.43;3.00;;;25.10;99.90;;;;;;5062819;28;20196;-84
2022/06/02 11:03:10;;;;;;;10.63;2.90;;;24.60;99.90;;;;;;5065442;28;20161;-84
2022/06/02 11:06:17;;;;;;;3.63;2.70;;;24.30;99.90;;;;;;5064425;28;20255;-84
2022/06/02 11:09:19;;;;;;;3.90;2.40;;;24.80;99.90;;;;;;5060602;28;20191;-84
2022/06/02 11:11:54;;;;;;;2.23;2.03;;;24.60;99.90;;;;;;5063692;28;20349;-84
2022/06/02 11:14:50;;;;;;;2.87;2.40;;;23.70;99.90;;;;;;5063219;28;20201;-84
2022/06/02 11:17:53;;;;;;;2.70;2.33;;;23.00;99.90;;;;;;5063055;28;20216;-84
2022/06/02 11:20:36;;;;;;;3.77;2.60;;;22.70;99.90;;;;;;5062283;28;20186;-84
2022/06/02 11:23:33;;;;;;;4.20;2.27;;;22.00;99.90;;;;;;5062606;28;20512;-83
2022/06/02 11:26:38;;;;;;;2.20;2.00;;;20.90;99.90;;;;;;5063226;28;20564;-83
2022/06/02 11:29:22;;;;;;;3.43;2.23;;;20.90;99.90;;;;;;5062547;28;20159;-83
2022/06/02 11:32:11;;;;;;;3.20;2.47;;;20.60;99.90;;;;;;5063156;28;20273;-83
2022/06/02 11:34:45;;;;;;;3.67;2.70;;;20.20;99.90;;;;;;5061210;28;20189;-85
2022/06/02 11:37:36;;;;;;;3.27;2.53;;;19.90;99.90;;;;;;5060429;28;20213;-85
2022/06/02 11:40:33;;;;;;;7.97;2.70;;;19.90;99.90;;;;;;5061522;28;20529;-85
2022/06/02 11:43:14;;;;;;;8.87;3.00;;;19.70;99.90;;;;;;5060714;28;20170;-86
2022/06/02 11:45:58;;;;;;;3.13;2.83;;;19.70;99.90;;;;;;5061505;28;20185;-86
2022/06/02 11:48:46;;;;;;;3.80;3.20;;;19.60;99.90;;;;;;5061696;28;20204;-86
2022/06/02 11:51:21;;;;;;;7.57;3.30;;;19.60;99.90;;;;;;5062108;28;20174;-86
2022/06/02 11:54:31;;;;;;;4.00;3.20;;;19.70;99.90;;;;;;5061915;28;20173;-87
2022/06/02 11:57:27;;;;;;;3.87;2.90;;;19.80;99.90;;;;;;5060100;28;20218;-87
2022/06/02 12:00:11;;;;;;;3.63;3.13;;;19.80;99.90;;;;;;5060177;28;20200;-86
2022/06/02 12:03:05;;;;;;;4.60;4.00;;;19.90;99.90;;;;;;5060304;28;20206;-86
2022/06/02 12:06:00;;;;;;;4.43;3.67;;;20.50;99.90;;;;;;5060471;28;20191;-86
2022/06/02 12:08:56;;;;;;;4.17;3.03;;;21.90;99.90;;;;;;5061032;28;20208;-86
2022/06/02 12:11:45;;;;;;;5.27;3.67;;;22.90;99.90;;;;;;5060860;28;20178;-86
2022/06/02 12:14:50;;;;;;;3.67;3.00;;;23.80;99.90;;;;;;5053734;28;20193;-83
2022/06/02 12:17:33;;;;;;;5.77;3.50;;;23.90;99.90;;;;;;5024581;28;20657;-85
2022/06/02 12:20:25;;;;;;;3.70;3.30;;;24.00;99.90;;;;;;5059709;28;20185;-85
2022/06/02 12:23:20;;;;;;;3.50;2.93;;;24.10;99.90;;;;;;5055208;28;20280;-85
2022/06/02 12:26:11;;;;;;;5.20;3.13;;;23.60;99.90;;;;;;5052911;28;20564;-84
2022/06/02 12:28:55;;;;;;;4.20;2.60;;;22.90;99.90;;;;;;5039731;28;20194;-84
2022/06/02 12:32:02;;;;;;;4.63;2.67;;;22.80;99.90;;;;;;5059204;28;20173;-84
2022/06/02 12:35:06;;;;;;;2.87;2.50;;;22.80;99.90;;;;;;5058632;28;20201;-84
2022/06/02 12:37:44;;;;;;;3.73;2.60;;;23.20;99.90;;;;;;5052865;28;20218;-84
2022/06/02 12:40:24;;;;;;;2.43;2.23;;;23.20;99.90;;;;;;5058609;28;20187;-85
2022/06/02 12:43:13;;;;;;;4.03;2.50;;;23.10;99.90;;;;;;5058007;28;20174;-84
2022/06/02 12:45:44;;;;;;;4.83;2.37;;;23.10;99.90;;;;;;5052873;28;20209;-82
2022/06/02 12:48:31;;;;;;;3.93;2.10;;;23.30;99.90;;;;;;5057768;28;20182;-81
2022/06/02 12:51:17;;;;;;;2.37;1.90;;;23.70;99.90;;;;;;5056745;28;20269;-82
2022/06/02 12:53:56;;;;;;;2.33;2.07;;;23.90;99.90;;;;;;5056106;28;20164;-82
2022/06/02 12:56:34;;;;;;;2.30;2.10;;;23.60;99.90;;;;;;5055059;28;20222;-82
2022/06/02 12:59:26;;;;;;;3.67;2.47;;;23.60;99.90;;;;;;5053766;28;20191;-82
2022/06/02 13:02:07;;;;;;;2.90;1.90;;;23.20;99.90;;;;;;5054758;28;20221;-82
2022/06/02 13:04:51;;;;;;;2.57;2.00;;;22.80;99.90;;;;;;5055469;28;20170;-82
2022/06/02 13:07:28;;;;;;;3.70;2.10;;;22.40;99.90;;;;;;5060164;28;20250;-83
2022/06/02 13:10:04;;;;;;;2.83;2.00;;;22.40;99.90;;;;;;5058473;28;20671;-83
2022/06/02 13:12:42;;;;;;;2.77;2.20;;;22.30;99.90;;;;;;5060903;28;20165;-83
2022/06/02 13:15:14;;;;;;;2.13;1.90;;;22.30;99.90;;;;;;5059436;28;20257;-83
2022/06/02 13:17:49;;;;;;;4.10;2.00;;;22.70;99.90;;;;;;5058517;28;20198;-83
2022/06/02 13:20:30;;;;;;;2.77;1.93;;;23.00;99.90;;;;;;5057584;28;20648;-83
2022/06/02 13:23:28;;;;;;;2.53;1.90;;;23.60;99.90;;;;;;5059887;28;20165;-83
2022/06/02 13:26:13;;;;;;;2.30;1.70;;;;;;;;;;5062083;28;20196;-82
2022/06/02 13:28:45;;;;;;;2.67;2.10;;;26.60;99.90;;;;;;5065334;28;20190;-82
2022/06/02 13:31:22;;;;;;;1.90;1.77;;;26.40;99.90;;;;;;5056571;28;20183;-82
2022/06/02 13:34:26;;;;;;;2.37;1.70;;;26.10;99.90;;;;;;5057056;28;20174;-82
2022/06/02 13:37:07;;;;;;;1.60;1.43;;;24.60;99.90;;;;;;5056085;28;20729;-83
2022/06/02 13:40:15;;;;;;;2.57;1.77;;;24.30;99.90;;;;;;5058719;28;20164;-82
2022/06/02 13:42:47;;;;;;;2.50;1.57;;;23.80;99.90;;;;;;5058730;28;20163;-82
2022/06/02 13:45:23;;;;;;;2.10;1.70;;;24.80;99.90;;;;;;5058413;28;20174;-83
2022/06/02 13:48:07;;;;;;;3.10;1.70;;;25.50;99.90;;;;;;5059228;28;20185;-82
2022/06/02 13:50:59;;;;;;;2.30;2.00;;;25.80;99.90;;;;;;5059086;28;20174;-83
2022/06/02 13:57:30;;;;;;;4.53;2.00;;;26.50;99.90;;;;;;5074005;28;20181;-82
2022/06/02 13:57:38;;;;;;;2.23;1.70;;;26.50;99.90;;;;;;5058127;28;20205;-82
2022/06/02 14:00:38;;;;;;;3.00;1.60;;;26.50;99.90;;;;;;5016267;28;20202;-83
2022/06/02 14:03:10;;;;;;;2.53;1.40;;;26.90;99.90;;;;;;4983677;28;20189;-83
2022/06/02 14:06:07;;;;;;;2.03;1.83;;;27.90;99.90;;;;;;5050699;28;20206;-83
2022/06/02 14:09:10;;;;;;;1.70;1.60;;;27.90;99.90;;;;;;5061032;28;20228;-83
2022/06/02 14:11:50;;;;;;;1.70;1.40;;;27.60;99.90;;;;;;5072924;28;20231;-82
2022/06/02 14:14:49;;;;;;;1.53;1.43;;;26.80;99.90;;;;;;5072756;28;20170;-82
2022/06/02 14:17:50;;;;;;;2.20;1.40;;;26.80;99.90;;;;;;5060360;28;20217;-82
2022/06/02 14:20:34;;;;;;;2.47;1.50;;;26.80;99.90;;;;;;5060498;28;20264;-82
2022/06/02 14:22:59;;;;;;;2.70;1.60;;;27.00;99.90;;;;;;5058973;28;20173;-82
2022/06/02 14:25:25;;;;;;;2.90;1.70;;;27.20;99.90;;;;;;5059624;28;20183;-82
2022/06/02 14:28:25;;;;;;;2.20;1.50;;;26.90;99.90;;;;;;5059365;28;20276;-82
2022/06/02 14:31:11;;;;;;;2.20;1.60;;;26.70;99.90;;;;;;5059222;28;20542;-82
2022/06/02 14:33:39;;;;;;;1.87;1.63;;;26.20;99.90;;;;;;5060436;28;20617;-82
2022/06/02 14:36:18;;;;;;;2.27;1.60;;;25.90;99.90;;;;;;5059146;28;20273;-82